createdAt,value
2017-10-11T00:00:26.053Z,9.27
2017-10-11T00:02:52.731Z,7.53
2017-10-11T00:05:19.427Z,7.97
2017-10-11T00:07:45.942Z,8.37
2017-10-11T00:10:12.801Z,9.50
2017-10-11T00:12:39.396Z,7.00
2017-10-11T00:15:06.956Z,8.30
2017-10-11T00:17:33.596Z,8.77
2017-10-11T00:20:00.265Z,10.13
2017-10-11T00:22:26.964Z,9.60
2017-10-11T00:24:53.678Z,9.80
2017-10-11T00:27:22.049Z,10.77
2017-10-11T00:29:48.730Z,9.60
2017-10-11T00:32:15.408Z,10.97
2017-10-11T00:34:41.998Z,11.10
2017-10-11T00:37:09.665Z,12.13
2017-10-11T00:39:37.903Z,11.13
2017-10-11T00:42:04.606Z,11.70
2017-10-11T00:44:31.254Z,12.00
2017-10-11T00:46:57.917Z,12.20
2017-10-11T00:49:24.449Z,12.17
2017-10-11T00:51:50.953Z,11.00
2017-10-11T00:54:17.513Z,14.30
2017-10-11T00:56:44.069Z,11.90
2017-10-11T00:59:10.980Z,12.30
2017-10-11T01:01:38.386Z,13.50
2017-10-11T01:04:05.069Z,13.37
2017-10-11T01:06:31.712Z,14.37
2017-10-11T01:08:58.553Z,13.20
2017-10-11T01:11:25.131Z,13.10
2017-10-11T01:13:51.905Z,15.53
2017-10-11T01:16:18.887Z,14.30
2017-10-11T01:18:46.312Z,15.80
2017-10-11T01:21:12.989Z,15.00
2017-10-11T01:23:39.788Z,15.37
2017-10-11T01:26:07.201Z,15.60
2017-10-11T01:28:33.752Z,17.10
2017-10-11T01:31:00.639Z,16.03
2017-10-11T01:33:27.184Z,17.83
2017-10-11T01:35:54.547Z,18.40
2017-10-11T01:38:21.148Z,17.70
2017-10-11T01:40:47.784Z,19.20
2017-10-11T01:43:15.330Z,18.43
2017-10-11T01:45:42.003Z,17.37
2017-10-11T01:48:08.709Z,17.90
2017-10-11T01:50:35.445Z,19.30
2017-10-11T01:53:02.925Z,17.40
2017-10-11T01:55:30.460Z,16.57
2017-10-11T01:57:57.046Z,12.40
2017-10-11T02:00:23.783Z,15.33
2017-10-11T02:02:50.437Z,15.20
2017-10-11T02:05:17.139Z,12.97
2017-10-11T02:07:44.421Z,10.97
2017-10-11T02:10:11.187Z,11.13
2017-10-11T02:12:37.916Z,10.40
2017-10-11T02:15:04.642Z,10.43
2017-10-11T02:17:31.285Z,9.40
2017-10-11T02:19:58.287Z,8.80
2017-10-11T02:22:25.066Z,9.10
2017-10-11T02:24:53.612Z,6.27
2017-10-11T02:27:20.177Z,5.60
2017-10-11T02:29:46.886Z,6.00
2017-10-11T02:32:13.639Z,6.50
2017-10-11T02:34:40.159Z,7.20
2017-10-11T02:37:06.898Z,10.47
2017-10-11T02:39:33.481Z,12.17
2017-10-11T02:42:00.146Z,12.43
2017-10-11T02:44:26.877Z,15.53
2017-10-11T02:46:53.770Z,17.27
2017-10-11T02:49:22.573Z,19.10
2017-10-11T02:51:50.057Z,18.57
2017-10-11T02:54:17.154Z,22.60
2017-10-11T02:56:43.989Z,22.10
2017-10-11T02:59:10.884Z,22.00
2017-10-11T03:01:38.367Z,20.30
2017-10-11T03:04:06.155Z,23.77
2017-10-11T03:06:33.033Z,25.10
2017-10-11T03:08:59.642Z,22.17
2017-10-11T03:11:26.309Z,23.47
2017-10-11T03:13:53.064Z,24.60
2017-10-11T03:16:19.767Z,19.93
2017-10-11T03:18:46.805Z,25.40
2017-10-11T03:21:14.808Z,22.53
2017-10-11T03:23:41.332Z,29.20
2017-10-11T03:26:07.953Z,22.57
2017-10-11T03:28:34.432Z,20.57
2017-10-11T03:31:01.111Z,22.60
2017-10-11T03:33:28.073Z,22.80
2017-10-11T03:35:54.712Z,20.97
2017-10-11T03:38:22.183Z,18.10
2017-10-11T03:40:48.881Z,19.70
2017-10-11T03:43:15.554Z,20.23
2017-10-11T03:45:42.321Z,12.67
2017-10-11T03:48:09.098Z,20.30
2017-10-11T03:50:35.980Z,20.20
2017-10-11T03:53:02.693Z,19.80
2017-10-11T03:55:30.218Z,19.37
2017-10-11T03:57:57.027Z,21.33
2017-10-11T04:00:23.552Z,18.70
2017-10-11T04:02:50.291Z,14.00
2017-10-11T04:05:17.308Z,20.40
2017-10-11T04:07:43.944Z,19.47
2017-10-11T04:10:10.530Z,18.30
2017-10-11T04:12:37.118Z,19.83
2017-10-11T04:15:03.960Z,19.23
2017-10-11T04:17:30.744Z,19.80
2017-10-11T04:19:57.855Z,18.63
2017-10-11T04:22:24.524Z,20.70
2017-10-11T04:24:52.166Z,21.20
2017-10-11T04:27:19.073Z,20.87
2017-10-11T04:29:52.570Z,22.10
2017-10-11T04:32:20.124Z,21.87
2017-10-11T04:34:46.892Z,21.93
2017-10-11T04:37:13.805Z,18.90
2017-10-11T04:39:40.598Z,12.80
2017-10-11T04:42:08.113Z,19.73
2017-10-11T04:44:34.832Z,20.00
2017-10-11T04:47:01.839Z,20.77
2017-10-11T04:49:28.471Z,19.20
2017-10-11T04:51:55.319Z,21.80
2017-10-11T04:54:22.815Z,21.17
2017-10-11T04:56:49.948Z,22.23
2017-10-11T04:59:16.673Z,22.00
2017-10-11T05:01:43.429Z,22.13
2017-10-11T05:04:10.168Z,22.33
2017-10-11T05:06:36.677Z,21.20
2017-10-11T05:09:06.081Z,21.43
2017-10-11T05:11:32.930Z,23.50
2017-10-11T05:13:59.513Z,22.73
2017-10-11T05:16:26.284Z,20.70
2017-10-11T05:18:53.127Z,23.83
2017-10-11T05:21:19.987Z,23.83
2017-10-11T05:23:46.699Z,22.63
2017-10-11T05:26:13.341Z,22.60
2017-10-11T05:28:40.041Z,22.87
2017-10-11T05:31:06.993Z,24.50
2017-10-11T05:33:34.640Z,24.47
2017-10-11T05:36:01.184Z,22.17
2017-10-11T05:38:27.796Z,23.73
2017-10-11T05:40:55.256Z,26.10
2017-10-11T05:43:21.825Z,25.63
2017-10-11T05:45:48.488Z,25.93
2017-10-11T05:48:15.478Z,23.67
2017-10-11T05:50:42.105Z,28.07
2017-10-11T05:53:08.916Z,26.07
2017-10-11T05:55:35.788Z,25.53
2017-10-11T05:58:02.420Z,24.93
2017-10-11T06:00:29.909Z,24.07
2017-10-11T06:02:58.456Z,24.47
2017-10-11T06:05:25.137Z,25.73
2017-10-11T06:07:51.873Z,24.70
2017-10-11T06:10:19.816Z,28.57
2017-10-11T06:12:47.003Z,26.20
2017-10-11T06:15:14.199Z,28.27
2017-10-11T06:17:43.597Z,29.60
2017-10-11T06:20:10.933Z,27.73
2017-10-11T06:22:37.975Z,27.30
2017-10-11T06:25:04.771Z,27.07
2017-10-11T06:27:31.481Z,26.43
2017-10-11T06:29:58.183Z,28.73
2017-10-11T06:32:25.038Z,27.50
2017-10-11T06:34:52.490Z,27.87
2017-10-11T06:37:19.765Z,26.30
2017-10-11T06:39:46.364Z,28.53
2017-10-11T06:42:13.034Z,27.37
2017-10-11T06:44:39.677Z,26.30
2017-10-11T06:47:06.333Z,24.53
2017-10-11T06:49:32.858Z,23.10
2017-10-11T06:51:59.832Z,24.17
2017-10-11T06:54:26.561Z,26.90
2017-10-11T06:56:53.237Z,22.63
2017-10-11T06:59:20.027Z,23.40
2017-10-11T07:01:46.766Z,20.60
2017-10-11T07:04:14.219Z,18.87
2017-10-11T07:06:42.049Z,17.83
2017-10-11T07:09:08.794Z,17.63
2017-10-11T07:11:35.644Z,15.13
2017-10-11T07:14:02.252Z,14.73
2017-10-11T07:16:28.919Z,16.40
2017-10-11T07:18:55.747Z,14.77
2017-10-11T07:21:22.597Z,15.60
2017-10-11T07:23:50.229Z,16.37
2017-10-11T07:26:18.004Z,16.07
2017-10-11T07:28:44.695Z,17.77
2017-10-11T07:31:11.233Z,19.40
2017-10-11T07:33:38.531Z,18.53
2017-10-11T07:36:05.289Z,19.63
2017-10-11T07:38:32.536Z,19.60
2017-10-11T07:40:59.392Z,19.90
2017-10-11T07:43:26.646Z,21.03
2017-10-11T07:45:53.999Z,22.07
2017-10-11T07:48:20.600Z,22.53
2017-10-11T07:50:47.359Z,18.13
2017-10-11T07:53:14.128Z,19.30
2017-10-11T07:55:40.974Z,19.10
2017-10-11T07:58:08.604Z,17.77
2017-10-11T08:00:35.326Z,18.97
2017-10-11T08:03:02.211Z,19.03
2017-10-11T08:05:30.160Z,20.70
2017-10-11T08:07:57.186Z,21.30
2017-10-11T08:10:23.955Z,20.53
2017-10-11T08:12:50.735Z,21.90
2017-10-11T08:15:17.490Z,21.30
2017-10-11T08:17:44.234Z,20.20
2017-10-11T08:20:11.603Z,21.77
2017-10-11T08:22:38.709Z,21.07
2017-10-11T08:25:05.522Z,22.80
2017-10-11T08:27:33.083Z,21.53
2017-10-11T08:29:59.633Z,22.93
2017-10-11T08:32:26.401Z,21.63
2017-10-11T08:34:53.817Z,21.90
2017-10-11T08:37:20.562Z,15.80
2017-10-11T08:39:48.234Z,17.93
2017-10-11T08:42:15.759Z,18.30
2017-10-11T08:44:42.434Z,21.17
2017-10-11T08:47:09.018Z,21.47
2017-10-11T08:49:35.868Z,22.70
2017-10-11T08:52:02.929Z,27.30
2017-10-11T08:54:29.808Z,25.10
2017-10-11T08:56:56.489Z,26.63
2017-10-11T08:59:23.351Z,22.57
2017-10-11T09:01:50.026Z,24.93
2017-10-11T09:04:17.548Z,20.07
2017-10-11T09:06:44.304Z,21.50
2017-10-11T09:09:11.025Z,19.23
2017-10-11T09:11:38.278Z,20.13
2017-10-11T09:14:05.972Z,19.80
2017-10-11T09:16:33.206Z,18.63
2017-10-11T09:19:00.163Z,17.87
2017-10-11T09:21:27.729Z,17.67
2017-10-11T09:23:55.494Z,16.67
2017-10-11T09:26:22.960Z,17.30
2017-10-11T09:28:50.069Z,14.67
2017-10-11T09:31:16.927Z,14.10
2017-10-11T09:33:44.072Z,13.40
2017-10-11T09:36:11.561Z,10.47
2017-10-11T09:38:39.318Z,10.73
2017-10-11T09:41:06.149Z,11.13
2017-10-11T09:43:32.804Z,11.43
2017-10-11T09:46:00.551Z,10.13
2017-10-11T09:48:27.331Z,10.37
2017-10-11T09:50:53.960Z,8.87
2017-10-11T09:53:21.414Z,8.50
2017-10-11T09:55:48.105Z,7.70
2017-10-11T09:58:15.438Z,6.60
2017-10-11T10:00:42.105Z,6.57
2017-10-11T10:03:09.040Z,4.77
2017-10-11T10:05:35.598Z,6.40
2017-10-11T10:08:02.513Z,6.07
2017-10-11T10:10:29.198Z,5.33
2017-10-11T10:12:55.968Z,4.30
2017-10-11T10:15:22.832Z,4.80
2017-10-11T10:17:49.436Z,4.00
2017-10-11T10:20:16.038Z,4.83
2017-10-11T10:22:42.790Z,4.30
2017-10-11T10:25:09.796Z,3.37
2017-10-11T10:27:37.553Z,4.50
2017-10-11T10:30:04.867Z,5.17
2017-10-11T10:32:32.190Z,4.70
2017-10-11T10:34:58.989Z,4.90
2017-10-11T10:37:25.618Z,4.40
2017-10-11T10:39:52.998Z,19.93
2017-10-11T10:42:19.879Z,4.93
2017-10-11T10:44:46.650Z,4.57
2017-10-11T10:47:13.455Z,5.10
2017-10-11T10:49:40.842Z,5.53
2017-10-11T10:52:07.693Z,3.60
2017-10-11T10:54:35.705Z,4.37
2017-10-11T10:57:02.441Z,7.57
2017-10-11T10:59:29.181Z,4.67
2017-10-11T11:01:55.977Z,4.63
2017-10-11T11:04:22.871Z,5.30
2017-10-11T11:06:49.814Z,5.90
2017-10-11T11:09:17.176Z,5.93
2017-10-11T11:11:43.783Z,5.90
2017-10-11T11:14:10.576Z,6.37
2017-10-11T11:16:37.277Z,7.20
2017-10-11T11:19:04.281Z,8.70
2017-10-11T11:21:30.978Z,9.50
2017-10-11T11:23:57.624Z,10.17
2017-10-11T11:26:24.311Z,10.53
2017-10-11T11:28:50.964Z,10.60
2017-10-11T11:31:18.112Z,11.23
2017-10-11T11:33:44.751Z,12.00
2017-10-11T11:36:11.466Z,13.70
2017-10-11T11:38:38.185Z,12.03
2017-10-11T11:41:05.455Z,11.83
2017-10-11T11:43:32.329Z,11.50
2017-10-11T11:46:01.636Z,12.40
2017-10-11T11:48:28.687Z,13.10
2017-10-11T11:50:56.125Z,12.33
2017-10-11T11:53:23.077Z,12.60
2017-10-11T11:55:50.521Z,13.60
2017-10-11T11:58:17.228Z,12.70
2017-10-11T12:00:44.449Z,13.10
2017-10-11T12:03:11.226Z,14.00
2017-10-11T12:05:37.898Z,16.00
2017-10-11T12:08:05.210Z,15.67
2017-10-11T12:10:31.808Z,16.50
2017-10-11T12:12:58.547Z,13.43
2017-10-11T12:15:25.214Z,12.67
2017-10-11T12:17:51.851Z,12.60
2017-10-11T12:20:18.455Z,11.20
2017-10-11T12:22:45.244Z,11.40
2017-10-11T12:25:12.036Z,10.97
2017-10-11T12:27:39.575Z,8.87
2017-10-11T12:30:07.146Z,7.50
2017-10-11T12:32:33.703Z,8.97
2017-10-11T12:35:00.334Z,7.63
2017-10-11T12:37:27.189Z,7.80
2017-10-11T12:39:54.194Z,6.70
2017-10-11T12:42:20.888Z,8.10
2017-10-11T12:44:47.438Z,6.10
2017-10-11T12:47:14.151Z,7.03
2017-10-11T12:49:40.846Z,6.57
2017-10-11T12:52:07.810Z,5.30
2017-10-11T12:54:34.342Z,6.03
2017-10-11T12:57:01.103Z,6.73
2017-10-11T12:59:28.580Z,6.10
2017-10-11T13:01:55.121Z,5.80
2017-10-11T13:04:21.858Z,5.50
2017-10-11T13:06:48.588Z,5.33
2017-10-11T13:09:15.379Z,5.10
2017-10-11T13:11:42.113Z,5.23
2017-10-11T13:14:08.861Z,4.83
2017-10-11T13:16:35.853Z,5.33
2017-10-11T13:19:02.620Z,3.90
2017-10-11T13:21:29.384Z,4.70
2017-10-11T13:23:56.993Z,4.90
2017-10-11T13:26:23.855Z,5.50
2017-10-11T13:28:50.711Z,4.83
2017-10-11T13:31:17.443Z,5.50
2017-10-11T13:33:44.129Z,7.30
2017-10-11T13:36:10.939Z,6.30
2017-10-11T13:38:37.478Z,7.93
2017-10-11T13:41:04.286Z,9.70
2017-10-11T13:43:30.943Z,9.90
2017-10-11T13:45:58.339Z,9.50
2017-10-11T13:48:25.813Z,10.80
2017-10-11T13:50:52.593Z,10.83
2017-10-11T13:53:19.247Z,10.30
2017-10-11T13:55:46.014Z,12.37
2017-10-11T13:58:12.869Z,13.30
2017-10-11T14:00:40.457Z,12.47
2017-10-11T14:03:07.083Z,12.87
2017-10-11T14:05:34.884Z,13.27
2017-10-11T14:08:01.425Z,15.37
2017-10-11T14:10:28.076Z,14.33
2017-10-11T14:12:54.878Z,15.00
2017-10-11T14:15:21.630Z,14.37
2017-10-11T14:17:48.693Z,15.47
2017-10-11T14:20:15.591Z,15.70
2017-10-11T14:22:43.366Z,15.00
2017-10-11T14:25:10.312Z,16.40
2017-10-11T14:27:37.825Z,15.80
2017-10-11T14:30:04.376Z,17.47
2017-10-11T14:32:31.863Z,15.87
2017-10-11T14:34:58.560Z,15.93
2017-10-11T14:37:25.859Z,17.00
2017-10-11T14:39:52.564Z,18.87
2017-10-11T14:42:19.662Z,15.97
2017-10-11T14:44:47.128Z,13.80
2017-10-11T14:47:13.885Z,16.20
2017-10-11T14:49:40.761Z,16.90
2017-10-11T14:52:07.552Z,15.77
2017-10-11T14:54:34.725Z,15.43
2017-10-11T14:57:01.484Z,14.43
2017-10-11T14:59:29.108Z,16.20
2017-10-11T15:01:55.943Z,15.00
2017-10-11T15:04:24.328Z,13.70
2017-10-11T15:06:51.242Z,15.67
2017-10-11T15:09:17.968Z,13.43
2017-10-11T15:11:45.123Z,14.57
2017-10-11T15:14:12.124Z,16.40
2017-10-11T15:16:39.792Z,16.90
2017-10-11T15:19:06.545Z,16.47
2017-10-11T15:21:33.968Z,15.23
2017-10-11T15:24:01.545Z,16.23
2017-10-11T15:26:29.121Z,16.57
2017-10-11T15:28:56.105Z,15.67
2017-10-11T15:31:23.112Z,17.20
2017-10-11T15:33:50.014Z,19.27
2017-10-11T15:36:16.714Z,17.73
2017-10-11T15:38:43.702Z,15.60
2017-10-11T15:41:10.357Z,17.80
2017-10-11T15:43:38.618Z,17.50
2017-10-11T15:46:08.404Z,18.10
2017-10-11T15:48:35.953Z,17.50
2017-10-11T15:51:02.484Z,16.33
2017-10-11T15:53:29.163Z,17.53
2017-10-11T15:55:57.241Z,15.77
2017-10-11T15:58:23.885Z,17.00
2017-10-11T16:00:50.611Z,17.53
2017-10-11T16:03:19.517Z,16.20
2017-10-11T16:05:46.550Z,15.87
2017-10-11T16:08:14.072Z,16.03
2017-10-11T16:10:40.914Z,14.20
2017-10-11T16:13:07.815Z,14.73
2017-10-11T16:15:35.757Z,14.90
2017-10-11T16:18:03.717Z,14.30
2017-10-11T16:20:30.333Z,13.33
2017-10-11T16:22:57.071Z,13.30
2017-10-11T16:25:24.169Z,13.50
2017-10-11T16:27:51.650Z,13.20
2017-10-11T16:30:19.141Z,12.77
2017-10-11T16:32:46.216Z,12.47
2017-10-11T16:35:13.113Z,11.73
2017-10-11T16:37:40.431Z,13.70
2017-10-11T16:40:07.271Z,12.27
2017-10-11T16:42:33.907Z,13.30
2017-10-11T16:45:01.500Z,12.47
2017-10-11T16:47:28.939Z,13.70
2017-10-11T16:49:56.420Z,12.93
2017-10-11T16:52:23.258Z,10.60
2017-10-11T16:54:50.289Z,10.90
2017-10-11T16:57:16.983Z,10.87
2017-10-11T16:59:43.954Z,10.50
2017-10-11T17:02:10.665Z,10.43
2017-10-11T17:04:37.218Z,9.80
2017-10-11T17:07:03.938Z,9.93
2017-10-11T17:09:31.319Z,11.63
2017-10-11T17:11:58.914Z,10.03
2017-10-11T17:14:25.569Z,11.83
2017-10-11T17:16:52.286Z,10.07
2017-10-11T17:19:19.863Z,9.77
2017-10-11T17:21:46.657Z,10.23
2017-10-11T17:24:13.300Z,8.57
2017-10-11T17:26:41.043Z,9.93
2017-10-11T17:29:11.870Z,8.70
2017-10-11T17:31:38.629Z,7.87
2017-10-11T17:34:05.317Z,8.63
2017-10-11T17:36:32.785Z,8.90
2017-10-11T17:38:59.524Z,9.50
2017-10-11T17:41:26.327Z,8.10
2017-10-11T17:43:53.874Z,6.10
2017-10-11T17:46:21.666Z,9.00
2017-10-11T17:48:48.419Z,8.30
2017-10-11T17:51:15.360Z,8.30
2017-10-11T17:53:42.291Z,10.00
2017-10-11T17:56:10.263Z,9.60
2017-10-11T17:58:37.636Z,9.60
2017-10-11T18:01:05.125Z,8.47
2017-10-11T18:03:32.398Z,9.60
2017-10-11T18:05:59.790Z,9.00
2017-10-11T18:08:27.364Z,10.57
2017-10-11T18:10:53.944Z,10.63
2017-10-11T18:13:20.499Z,11.20
2017-10-11T18:15:47.305Z,9.93
2017-10-11T18:18:14.076Z,11.40
2017-10-11T18:20:40.884Z,11.07
2017-10-11T18:23:07.864Z,10.60
2017-10-11T18:25:35.209Z,12.03
2017-10-11T18:28:02.232Z,11.20
2017-10-11T18:30:29.080Z,11.20
2017-10-11T18:32:57.143Z,10.27
2017-10-11T18:35:24.773Z,10.20
2017-10-11T18:37:53.192Z,11.03
2017-10-11T18:40:21.734Z,10.40
2017-10-11T18:42:49.398Z,8.83
2017-10-11T18:45:16.298Z,11.13
2017-10-11T18:47:42.963Z,9.87
2017-10-11T18:50:10.035Z,10.17
2017-10-11T18:52:36.804Z,9.03
2017-10-11T18:55:03.680Z,9.60
2017-10-11T18:57:30.383Z,10.10
2017-10-11T18:59:57.043Z,9.77
2017-10-11T19:02:23.716Z,10.83
2017-10-11T19:04:50.347Z,9.53
2017-10-11T19:07:17.165Z,8.30
2017-10-11T19:09:43.895Z,9.70
2017-10-11T19:12:11.942Z,7.83
2017-10-11T19:14:38.780Z,9.30
2017-10-11T19:17:05.359Z,7.77
2017-10-11T19:19:33.789Z,8.80
2017-10-11T19:22:00.357Z,9.10
2017-10-11T19:24:27.789Z,8.77
2017-10-11T19:26:54.719Z,8.60
2017-10-11T19:29:21.602Z,8.20
2017-10-11T19:31:48.960Z,8.97
2017-10-11T19:34:15.936Z,8.93
2017-10-11T19:36:42.780Z,8.63
2017-10-11T19:39:09.822Z,7.63
2017-10-11T19:41:36.760Z,7.70
2017-10-11T19:44:03.393Z,8.37
2017-10-11T19:46:30.049Z,9.57
2017-10-11T19:48:57.487Z,9.13
2017-10-11T19:51:24.275Z,9.40
2017-10-11T19:53:51.712Z,8.57
2017-10-11T19:56:18.543Z,9.00
2017-10-11T19:58:45.195Z,9.50
2017-10-11T20:01:11.859Z,9.23
2017-10-11T20:03:38.924Z,8.87
2017-10-11T20:06:07.757Z,9.50
2017-10-11T20:08:35.521Z,9.07
2017-10-11T20:11:03.961Z,10.90
2017-10-11T20:13:30.598Z,10.13
2017-10-11T20:15:58.852Z,10.83
2017-10-11T20:18:25.673Z,10.93
2017-10-11T20:20:53.817Z,10.33
2017-10-11T20:23:21.582Z,10.77
2017-10-11T20:25:48.317Z,10.20
2017-10-11T20:28:15.722Z,10.53
2017-10-11T20:30:43.036Z,10.70
2017-10-11T20:33:10.632Z,10.87
2017-10-11T20:35:38.153Z,11.30
2017-10-11T20:38:05.096Z,9.23
2017-10-11T20:40:31.864Z,9.27
2017-10-11T20:42:58.693Z,9.30
2017-10-11T20:45:25.318Z,9.90
2017-10-11T20:47:51.884Z,9.23
2017-10-11T20:50:19.190Z,9.50
2017-10-11T20:52:45.866Z,10.70
2017-10-11T20:55:12.609Z,10.03
2017-10-11T20:57:39.175Z,9.20
2017-10-11T21:00:06.032Z,10.27
2017-10-11T21:02:32.899Z,9.80
2017-10-11T21:04:59.894Z,10.30
2017-10-11T21:07:26.485Z,9.67
2017-10-11T21:09:53.914Z,9.10
2017-10-11T21:12:20.841Z,10.30
2017-10-11T21:14:47.460Z,9.80
2017-10-11T21:17:15.091Z,9.47
2017-10-11T21:19:42.641Z,9.00
2017-10-11T21:22:09.604Z,8.40
2017-10-11T21:24:36.789Z,8.87
2017-10-11T21:27:04.841Z,7.57
2017-10-11T21:29:31.417Z,8.70
2017-10-11T21:31:58.127Z,7.47
2017-10-11T21:34:24.880Z,9.20
2017-10-11T21:36:51.676Z,7.57
2017-10-11T21:39:18.342Z,7.77
2017-10-11T21:41:45.212Z,8.10
2017-10-11T21:44:11.928Z,9.27
2017-10-11T21:46:38.800Z,7.67
2017-10-11T21:49:05.616Z,7.20
2017-10-11T21:51:32.335Z,6.87
2017-10-11T21:53:59.088Z,8.30
2017-10-11T21:56:26.452Z,7.40
2017-10-11T21:58:53.436Z,7.47
2017-10-11T22:01:20.320Z,7.33
2017-10-11T22:03:46.904Z,7.60
2017-10-11T22:06:13.668Z,8.53
2017-10-11T22:08:41.363Z,7.60
2017-10-11T22:11:08.097Z,7.17
2017-10-11T22:13:34.900Z,7.23
2017-10-11T22:16:01.887Z,6.50
2017-10-11T22:18:29.631Z,6.73
2017-10-11T22:20:57.112Z,6.30
2017-10-11T22:23:23.886Z,6.80
2017-10-11T22:25:50.485Z,6.60
2017-10-11T22:28:17.101Z,6.40
2017-10-11T22:30:43.988Z,6.90
2017-10-11T22:33:10.881Z,6.17
2017-10-11T22:35:37.681Z,5.60
2017-10-11T22:38:04.313Z,6.30
2017-10-11T22:40:30.923Z,6.47
2017-10-11T22:42:58.098Z,5.70
2017-10-11T22:45:25.713Z,6.77
2017-10-11T22:47:52.375Z,5.90
2017-10-11T22:50:19.116Z,6.03
2017-10-11T22:52:45.804Z,6.90
2017-10-11T22:55:12.588Z,5.70
2017-10-11T22:57:39.261Z,5.80
2017-10-11T23:00:06.059Z,5.57
2017-10-11T23:02:33.937Z,5.00
2017-10-11T23:05:01.423Z,5.17
2017-10-11T23:07:28.138Z,4.90
2017-10-11T23:09:55.530Z,5.17
2017-10-11T23:12:22.304Z,5.90
2017-10-11T23:14:48.862Z,4.57
2017-10-11T23:17:16.439Z,5.43
2017-10-11T23:19:43.053Z,5.80
2017-10-11T23:22:09.896Z,4.77
2017-10-11T23:24:36.492Z,5.40
2017-10-11T23:27:03.397Z,4.60
2017-10-11T23:29:30.019Z,5.00
2017-10-11T23:31:56.926Z,6.50
2017-10-11T23:34:23.539Z,5.63
2017-10-11T23:36:51.357Z,5.90
2017-10-11T23:39:18.127Z,5.70
2017-10-11T23:41:44.986Z,5.27
2017-10-11T23:44:12.031Z,5.30
2017-10-11T23:46:39.061Z,5.73
2017-10-11T23:49:05.798Z,5.03
2017-10-11T23:51:32.552Z,4.97
2017-10-11T23:53:59.191Z,5.50
2017-10-11T23:56:25.932Z,5.50
2017-10-11T23:58:52.639Z,5.73
